Time;durP1;ratioP1;P1;durP2;ratioP2;P2;SDS_P1;SDS_P2;PMS_P1;PMS_P2;Temp;Humidity;BMP_temperature;BMP_pressure;BME280_temperature;BME280_humidity;BME280_pressure;Samples;Min_cycle;Max_cycle;Signal;HPM_P1;HPM_P2
2023/12/24 00:02:03;;;;;;;6.00;5.47;;;1.30;82.50;;;;;;6285870;28;20237;-78
2023/12/24 00:05:08;;;;;;;5.20;5.00;;;1.20;82.50;;;;;;6280287;28;20233;-80
2023/12/24 00:08:11;;;;;;;6.17;5.87;;;1.10;82.80;;;;;;6265437;28;20237;-79
2023/12/24 00:11:14;;;;;;;5.90;5.70;;;1.10;82.70;;;;;;6275003;28;20761;-79
2023/12/24 00:14:17;;;;;;;6.10;5.53;;;1.10;82.50;;;;;;6286429;28;20247;-81
2023/12/24 00:17:21;;;;;;;6.17;5.97;;;1.10;82.60;;;;;;6285127;28;20255;-80
2023/12/24 00:20:25;;;;;;;7.13;6.77;;;1.10;82.60;;;;;;6268009;28;20238;-79
2023/12/24 00:23:28;;;;;;;6.13;5.93;;;1.00;82.70;;;;;;6276688;28;20245;-81
2023/12/24 00:26:32;;;;;;;6.47;6.23;;;1.00;82.70;;;;;;6268109;28;20240;-79
2023/12/24 00:29:36;;;;;;;7.00;6.80;;;1.00;82.70;;;;;;6272287;28;20228;-79
2023/12/24 00:32:39;;;;;;;7.77;7.37;;;0.90;82.70;;;;;;6279907;28;20236;-75
2023/12/24 00:35:44;;;;;;;7.97;7.50;;;0.80;83.00;;;;;;6276173;28;20229;-78
2023/12/24 00:38:49;;;;;;;8.80;8.20;;;0.90;82.90;;;;;;6287992;28;20321;-78
2023/12/24 00:41:52;;;;;;;8.60;8.00;;;0.80;82.90;;;;;;6278981;28;20233;-79
2023/12/24 00:44:55;;;;;;;8.73;8.13;;;0.80;83.00;;;;;;6279165;28;20320;-80
2023/12/24 00:47:58;;;;;;;8.97;8.27;;;0.80;83.10;;;;;;6279107;28;20249;-78
2023/12/24 00:51:04;;;;;;;8.07;7.57;;;0.80;83.30;;;;;;6265223;28;20230;-80
2023/12/24 00:54:07;;;;;;;9.23;8.53;;;0.80;83.40;;;;;;6272748;28;20857;-78
2023/12/24 00:57:10;;;;;;;9.30;8.60;;;0.70;83.30;;;;;;6271488;28;20323;-80
2023/12/24 01:00:16;;;;;;;9.17;8.57;;;0.70;83.50;;;;;;6274882;28;20237;-80
2023/12/24 01:03:21;;;;;;;9.40;8.70;;;0.60;83.60;;;;;;6282403;28;20240;-81
2023/12/24 01:06:25;;;;;;;9.63;8.93;;;0.60;83.70;;;;;;6282316;28;20245;-81
2023/12/24 01:09:29;;;;;;;9.80;9.00;;;0.60;83.80;;;;;;6272449;28;20756;-81
2023/12/24 01:12:32;;;;;;;9.57;8.77;;;0.60;83.90;;;;;;6288314;28;20245;-80
2023/12/24 01:15:35;;;;;;;10.30;9.60;;;0.60;84.00;;;;;;6260690;28;20238;-80
2023/12/24 01:18:39;;;;;;;12.53;11.23;;;0.60;84.00;;;;;;6280856;28;20254;-79
2023/12/24 01:21:43;;;;;;;13.30;10.80;;;0.60;84.00;;;;;;6282550;28;20228;-83
2023/12/24 01:24:46;;;;;;;9.00;8.20;;;0.60;84.00;;;;;;6282054;28;20302;-80
2023/12/24 01:27:52;;;;;;;9.60;8.87;;;0.60;84.10;;;;;;6272218;28;20811;-81
2023/12/24 01:30:56;;;;;;;9.03;8.37;;;0.50;84.40;;;;;;6272740;28;20323;-78
2023/12/24 01:34:01;;;;;;;9.30;8.60;;;0.50;84.70;;;;;;6278508;28;20241;-80
2023/12/24 01:37:06;;;;;;;8.47;7.90;;;0.40;84.90;;;;;;6278841;28;20318;-78
2023/12/24 01:40:10;;;;;;;10.10;9.17;;;0.40;85.00;;;;;;6276191;28;20244;-79
2023/12/24 01:43:13;;;;;;;9.30;8.70;;;0.40;85.00;;;;;;6277542;28;20279;-78
2023/12/24 01:46:22;;;;;;;8.80;8.10;;;0.50;84.90;;;;;;6279918;28;20717;-80
2023/12/24 01:49:26;;;;;;;8.17;7.57;;;0.60;84.80;;;;;;6286535;28;21009;-78
2023/12/24 01:52:31;;;;;;;8.47;7.77;;;0.60;84.60;;;;;;6279543;28;20316;-80
2023/12/24 01:55:34;;;;;;;8.80;8.17;;;0.60;84.50;;;;;;6284069;28;20341;-82
2023/12/24 01:58:38;;;;;;;9.57;8.77;;;0.60;84.60;;;;;;6272177;28;20310;-81
2023/12/24 02:01:41;;;;;;;10.93;10.00;;;0.60;84.50;;;;;;6273803;28;20268;-80
2023/12/24 02:04:45;;;;;;;10.40;9.50;;;0.50;84.50;;;;;;6275659;28;20241;-79
2023/12/24 02:07:52;;;;;;;13.10;11.83;;;0.50;84.70;;;;;;6285494;28;20317;-79
2023/12/24 02:10:56;;;;;;;12.70;11.40;;;0.50;84.70;;;;;;6287284;28;20240;-81
2023/12/24 02:14:03;;;;;;;11.23;10.23;;;0.50;84.70;;;;;;6287502;28;20233;-80
2023/12/24 02:17:07;;;;;;;12.37;10.57;;;0.60;84.70;;;;;;6268939;28;20241;-82
2023/12/24 02:20:11;;;;;;;10.37;9.37;;;0.50;84.80;;;;;;6279003;28;20259;-82
2023/12/24 02:23:16;;;;;;;14.27;11.07;;;0.50;85.00;;;;;;6268717;28;20237;-78
2023/12/24 02:26:29;;;;;;;11.67;10.47;;;0.50;85.00;;;;;;6271727;28;20399;-80
2023/12/24 02:29:35;;;;;;;9.73;8.83;;;0.50;85.10;;;;;;6282461;28;20225;-80
2023/12/24 02:32:40;;;;;;;9.77;8.97;;;0.60;85.30;;;;;;6278138;28;20230;-81
2023/12/24 02:35:44;;;;;;;11.40;10.30;;;0.60;85.40;;;;;;6283907;28;20295;-81
2023/12/24 02:38:50;;;;;;;10.50;9.60;;;0.60;85.40;;;;;;6270474;28;20260;-79
2023/12/24 02:41:53;;;;;;;9.60;8.87;;;0.50;85.80;;;;;;6275261;28;20372;-81
2023/12/24 02:44:57;;;;;;;11.17;10.07;;;0.50;85.90;;;;;;6273527;28;20233;-79
2023/12/24 02:48:00;;;;;;;10.87;9.97;;;0.60;85.80;;;;;;6279897;28;20253;-82
2023/12/24 02:51:04;;;;;;;11.20;10.13;;;0.70;85.80;;;;;;6287692;28;20320;-82
2023/12/24 02:54:08;;;;;;;10.83;9.73;;;0.70;85.50;;;;;;6278518;28;20909;-80
2023/12/24 02:57:13;;;;;;;9.40;8.57;;;0.70;85.70;;;;;;6277407;28;20782;-81
2023/12/24 03:00:17;;;;;;;9.90;8.80;;;0.70;85.80;;;;;;6277478;28;20248;-83
2023/12/24 03:03:20;;;;;;;8.60;7.90;;;0.60;85.80;;;;;;6278325;28;20735;-79
2023/12/24 03:06:23;;;;;;;8.43;7.83;;;0.70;85.90;;;;;;6283257;28;20233;-82
2023/12/24 03:09:28;;;;;;;7.40;6.90;;;0.80;85.60;;;;;;6263643;28;20316;-83
2023/12/24 03:12:32;;;;;;;6.10;5.80;;;0.60;85.80;;;;;;6277998;28;20229;-81
2023/12/24 03:15:35;;;;;;;7.33;6.83;;;0.60;86.10;;;;;;6275319;28;20597;-81
2023/12/24 03:18:38;;;;;;;6.97;6.57;;;0.60;86.20;;;;;;6291650;28;20705;-82
2023/12/24 03:21:42;;;;;;;6.30;5.97;;;0.70;86.20;;;;;;6279992;28;20230;-83
2023/12/24 03:24:46;;;;;;;6.03;5.73;;;0.80;86.10;;;;;;6274459;28;20589;-80
2023/12/24 03:27:49;;;;;;;6.23;5.93;;;0.80;85.90;;;;;;6274839;28;20238;-82
2023/12/24 03:30:52;;;;;;;6.40;6.03;;;0.70;85.80;;;;;;6283192;28;20317;-81
2023/12/24 03:33:56;;;;;;;6.90;6.40;;;0.70;85.90;;;;;;6276928;28;20744;-82
2023/12/24 03:36:59;;;;;;;6.70;6.30;;;0.80;86.00;;;;;;6281310;28;20249;-83
2023/12/24 03:40:04;;;;;;;6.03;5.73;;;0.80;86.00;;;;;;6275098;28;20230;-83
2023/12/24 03:43:07;;;;;;;6.57;6.27;;;0.80;85.80;;;;;;6292240;28;20364;-82
2023/12/24 03:46:13;;;;;;;6.37;6.03;;;0.80;85.80;;;;;;6293731;28;20257;-83
2023/12/24 03:49:17;;;;;;;5.77;5.57;;;0.80;85.80;;;;;;6292913;28;20237;-80
2023/12/24 03:52:21;;;;;;;5.57;5.37;;;0.80;85.80;;;;;;6282532;28;20241;-80
2023/12/24 03:55:25;;;;;;;6.03;5.83;;;0.80;85.90;;;;;;6289369;28;20241;-81
2023/12/24 03:58:28;;;;;;;5.07;4.87;;;0.80;86.00;;;;;;6284475;28;20256;-81
2023/12/24 04:01:32;;;;;;;5.10;4.90;;;0.80;86.10;;;;;;6280187;28;20254;-80
2023/12/24 04:04:35;;;;;;;5.40;5.20;;;0.80;86.10;;;;;;6268373;28;20360;-82
2023/12/24 04:07:38;;;;;;;4.80;4.60;;;0.80;86.20;;;;;;6278205;28;20225;-81
2023/12/24 04:10:43;;;;;;;4.70;4.60;;;0.80;86.20;;;;;;6274217;28;20325;-79
2023/12/24 04:13:47;;;;;;;5.10;4.93;;;0.80;86.00;;;;;;6282253;28;20229;-81
2023/12/24 04:16:50;;;;;;;5.40;5.20;;;0.80;86.10;;;;;;6284111;28;20329;-80
2023/12/24 04:19:53;;;;;;;5.90;5.70;;;0.80;86.30;;;;;;6281195;28;20241;-78
2023/12/24 04:22:57;;;;;;;6.17;5.90;;;0.80;86.30;;;;;;6286451;28;21786;-80
2023/12/24 04:26:01;;;;;;;5.20;5.00;;;0.80;86.30;;;;;;6286941;28;20675;-79
2023/12/24 04:29:04;;;;;;;5.20;5.00;;;0.80;86.40;;;;;;6290156;28;20756;-81
2023/12/24 04:32:08;;;;;;;5.40;5.30;;;0.80;86.50;;;;;;6277708;28;20233;-79
2023/12/24 04:35:11;;;;;;;6.00;5.80;;;0.80;86.50;;;;;;6282182;28;20427;-80
2023/12/24 04:38:15;;;;;;;5.60;5.30;;;0.90;86.40;;;;;;6274831;28;20237;-80
2023/12/24 04:41:20;;;;;;;5.20;5.00;;;1.00;86.30;;;;;;6271856;28;20226;-79
2023/12/24 04:44:23;;;;;;;5.53;5.40;;;1.00;86.20;;;;;;6287475;28;20283;-82
2023/12/24 04:47:26;;;;;;;5.00;4.90;;;1.00;85.80;;;;;;6284928;28;20241;-79
2023/12/24 04:50:29;;;;;;;5.20;5.10;;;1.00;86.00;;;;;;6282003;28;20237;-79
2023/12/24 04:53:34;;;;;;;5.53;5.33;;;1.00;86.10;;;;;;6292396;28;20817;-78
2023/12/24 04:56:40;;;;;;;5.23;5.13;;;1.00;86.00;;;;;;6282432;28;20348;-79
2023/12/24 04:59:44;;;;;;;4.90;4.80;;;1.00;86.20;;;;;;6267468;28;20226;-80
2023/12/24 05:02:47;;;;;;;4.73;4.53;;;1.00;86.10;;;;;;6287726;28;20316;-79
2023/12/24 05:05:51;;;;;;;4.90;4.80;;;1.00;86.20;;;;;;6284684;28;20625;-78
2023/12/24 05:08:54;;;;;;;4.80;4.70;;;1.10;86.20;;;;;;6282261;28;20233;-79
2023/12/24 05:11:58;;;;;;;4.90;4.80;;;1.20;86.20;;;;;;6285478;28;20375;-78
2023/12/24 05:15:01;;;;;;;4.50;4.40;;;1.10;85.90;;;;;;6280466;28;20241;-79
2023/12/24 05:18:05;;;;;;;5.00;4.90;;;1.10;85.90;;;;;;6279233;28;20328;-80
2023/12/24 05:21:08;;;;;;;5.33;5.23;;;1.00;86.00;;;;;;6281052;28;20316;-80
2023/12/24 05:24:12;;;;;;;5.00;4.90;;;1.00;86.20;;;;;;6281554;28;20259;-81
2023/12/24 05:27:24;;;;;;;5.37;5.17;;;1.00;86.40;;;;;;6278328;28;20232;-81
2023/12/24 05:30:27;;;;;;;6.20;5.90;;;1.00;86.70;;;;;;6287706;28;20245;-78
2023/12/24 05:33:30;;;;;;;6.03;5.73;;;1.00;86.80;;;;;;6287397;28;20954;-80
2023/12/24 05:36:34;;;;;;;6.63;6.33;;;1.00;87.00;;;;;;6285480;28;20290;-79
2023/12/24 05:39:41;;;;;;;6.60;6.30;;;1.00;87.10;;;;;;6282839;28;20813;-83
2023/12/24 05:42:46;;;;;;;7.17;6.70;;;1.10;87.20;;;;;;6285941;28;20656;-80
2023/12/24 05:45:50;;;;;;;7.50;7.00;;;1.20;87.20;;;;;;6283702;28;20278;-81
2023/12/24 05:48:53;;;;;;;7.53;7.13;;;1.20;87.00;;;;;;6282052;28;20232;-79
2023/12/24 05:51:56;;;;;;;8.07;7.60;;;1.20;87.10;;;;;;6284404;28;20246;-79
2023/12/24 05:54:59;;;;;;;7.90;7.50;;;1.30;87.10;;;;;;6281512;28;20729;-79
2023/12/24 05:58:04;;;;;;;8.03;7.60;;;1.40;87.00;;;;;;6275375;28;20225;-81
2023/12/24 06:01:07;;;;;;;7.90;7.40;;;1.40;87.00;;;;;;6275610;28;20931;-80
2023/12/24 06:04:10;;;;;;;7.73;7.33;;;1.40;87.10;;;;;;6284584;28;20237;-80
2023/12/24 06:07:13;;;;;;;8.43;7.83;;;1.40;87.00;;;;;;6284316;28;20237;-79
2023/12/24 06:10:16;;;;;;;9.50;8.80;;;1.50;86.90;;;;;;6272049;28;20226;-80
2023/12/24 06:13:21;;;;;;;12.23;11.13;;;1.50;87.00;;;;;;6274332;28;20241;-80
2023/12/24 06:16:24;;;;;;;10.37;9.57;;;1.50;87.10;;;;;;6270456;28;20322;-84
2023/12/24 06:19:27;;;;;;;10.10;9.33;;;1.50;87.20;;;;;;6285436;28;20645;-80
2023/12/24 06:22:31;;;;;;;8.57;7.87;;;1.60;87.20;;;;;;6279067;28;20241;-80
2023/12/24 06:25:34;;;;;;;9.83;9.13;;;1.60;87.40;;;;;;6274568;28;20263;-80
2023/12/24 06:28:40;;;;;;;9.03;8.43;;;1.70;87.60;;;;;;6282929;28;20999;-78
2023/12/24 06:31:43;;;;;;;9.53;8.93;;;1.80;88.00;;;;;;6277080;28;20234;-81
2023/12/24 06:34:47;;;;;;;9.23;8.60;;;1.90;88.10;;;;;;6280223;28;20719;-79
2023/12/24 06:37:50;;;;;;;8.83;8.23;;;1.90;88.20;;;;;;6286241;28;20316;-83
2023/12/24 06:40:53;;;;;;;8.90;8.20;;;2.00;88.20;;;;;;6271076;28;20229;-81
2023/12/24 06:43:58;;;;;;;9.00;8.30;;;2.10;88.20;;;;;;6267646;28;20242;-81
2023/12/24 06:47:02;;;;;;;9.03;8.40;;;2.10;88.20;;;;;;6278651;28;20329;-81
2023/12/24 06:50:06;;;;;;;9.93;9.03;;;2.20;88.20;;;;;;6275228;28;20245;-80
2023/12/24 06:53:09;;;;;;;8.93;8.37;;;2.30;88.30;;;;;;6273927;28;20233;-81
2023/12/24 06:56:12;;;;;;;8.53;7.93;;;2.40;88.40;;;;;;6276707;28;20226;-79
2023/12/24 06:59:17;;;;;;;8.80;8.10;;;2.40;88.30;;;;;;6273665;28;20289;-80
2023/12/24 07:02:20;;;;;;;8.57;7.97;;;2.40;88.30;;;;;;6266405;28;20728;-80
2023/12/24 07:05:23;;;;;;;9.07;8.47;;;2.50;88.30;;;;;;6278785;28;20248;-81
2023/12/24 07:08:29;;;;;;;8.50;8.00;;;2.50;88.30;;;;;;6281711;28;20240;-81
2023/12/24 07:11:32;;;;;;;7.50;7.07;;;2.90;89.00;;;;;;6269336;28;20237;-80
2023/12/24 07:14:37;;;;;;;7.13;6.73;;;3.20;89.40;;;;;;6280215;28;20260;-81
2023/12/24 07:17:40;;;;;;;5.87;5.57;;;3.80;89.80;;;;;;6282611;28;20592;-80
2023/12/24 07:20:44;;;;;;;5.80;5.60;;;4.30;90.10;;;;;;6271140;28;20246;-80
2023/12/24 07:23:47;;;;;;;5.40;5.20;;;5.10;90.40;;;;;;6284058;28;20642;-80
2023/12/24 07:26:51;;;;;;;4.97;4.83;;;5.50;90.60;;;;;;6279712;28;20250;-79
2023/12/24 07:29:56;;;;;;;5.50;5.30;;;5.80;90.70;;;;;;6272359;28;20238;-81
2023/12/24 07:32:59;;;;;;;5.50;5.30;;;6.00;90.80;;;;;;6271731;28;20740;-80
2023/12/24 07:36:03;;;;;;;6.30;5.80;;;6.30;90.90;;;;;;6273854;28;20260;-82
2023/12/24 07:39:07;;;;;;;6.13;5.73;;;6.50;91.00;;;;;;6284528;28;20874;-81
2023/12/24 07:42:10;;;;;;;6.47;6.07;;;6.50;91.00;;;;;;6277342;28;20248;-80
2023/12/24 07:45:16;;;;;;;6.30;6.00;;;6.60;91.00;;;;;;6280095;28;20260;-79
2023/12/24 07:48:20;;;;;;;6.40;5.97;;;6.70;90.90;;;;;;6278692;28;20329;-79
2023/12/24 07:51:23;;;;;;;6.20;5.80;;;6.80;90.90;;;;;;6262109;28;20278;-81
2023/12/24 07:54:26;;;;;;;5.97;5.77;;;7.00;90.70;;;;;;6279031;28;20242;-80
2023/12/24 07:57:29;;;;;;;6.27;5.93;;;7.00;90.50;;;;;;6275956;28;20261;-82
2023/12/24 08:00:33;;;;;;;6.93;6.63;;;7.00;90.30;;;;;;6269428;28;20376;-78
2023/12/24 08:03:38;;;;;;;7.10;6.60;;;7.00;90.10;;;;;;6284066;28;20462;-78
2023/12/24 08:06:41;;;;;;;7.20;6.80;;;7.10;89.80;;;;;;6282070;28;20611;-80
2023/12/24 08:09:44;;;;;;;6.80;6.40;;;7.20;89.60;;;;;;6263859;28;20318;-78
2023/12/24 08:12:48;;;;;;;7.00;6.70;;;7.20;89.50;;;;;;6283285;28;22412;-77
2023/12/24 08:15:53;;;;;;;7.37;6.97;;;7.30;89.20;;;;;;6274209;28;20241;-80
2023/12/24 08:18:56;;;;;;;8.20;7.70;;;7.40;89.00;;;;;;6266359;28;20388;-79
2023/12/24 08:21:59;;;;;;;7.63;7.23;;;7.40;88.60;;;;;;6282334;28;20755;-80
2023/12/24 08:25:03;;;;;;;7.33;6.90;;;7.40;88.40;;;;;;6280546;28;20238;-80
2023/12/24 08:28:06;;;;;;;7.33;6.93;;;7.50;88.40;;;;;;6277412;28;20278;-80
2023/12/24 08:31:11;;;;;;;7.10;6.70;;;7.50;88.30;;;;;;6275606;28;20233;-79
2023/12/24 08:34:14;;;;;;;6.97;6.57;;;7.50;88.20;;;;;;6281052;28;20237;-79
2023/12/24 08:37:18;;;;;;;7.97;7.47;;;7.50;88.30;;;;;;6273943;28;20765;-78
2023/12/24 08:40:22;;;;;;;7.77;7.27;;;7.50;88.20;;;;;;6278811;28;20241;-79
2023/12/24 08:43:26;;;;;;;7.73;7.27;;;7.50;88.20;;;;;;6274625;28;20763;-80
2023/12/24 08:46:31;;;;;;;8.87;8.17;;;7.60;88.30;;;;;;6279941;28;20241;-81
2023/12/24 08:49:34;;;;;;;8.57;7.87;;;7.60;88.30;;;;;;6277100;28;20262;-80
2023/12/24 08:52:40;;;;;;;7.60;7.10;;;7.60;88.30;;;;;;6277260;28;20237;-80
2023/12/24 08:55:45;;;;;;;8.40;7.80;;;7.70;88.20;;;;;;6274024;28;20241;-80
2023/12/24 08:58:48;;;;;;;8.50;7.90;;;7.70;88.20;;;;;;6278823;28;20253;-81
2023/12/24 09:01:53;;;;;;;7.47;7.07;;;7.60;88.00;;;;;;6273514;28;20856;-79
2023/12/24 09:04:58;;;;;;;7.30;6.80;;;7.60;88.00;;;;;;6277995;28;20319;-80
2023/12/24 09:08:01;;;;;;;8.10;7.50;;;7.80;88.00;;;;;;6284782;28;20253;-81
2023/12/24 09:11:04;;;;;;;7.50;7.00;;;7.80;88.00;;;;;;6288841;28;20244;-81
2023/12/24 09:14:09;;;;;;;7.07;6.77;;;7.80;87.80;;;;;;6278051;28;20233;-79
2023/12/24 09:17:17;;;;;;;6.90;6.60;;;7.80;87.80;;;;;;6276576;28;20234;-80
2023/12/24 09:20:21;;;;;;;6.23;5.93;;;7.90;87.80;;;;;;6276434;28;20870;-77
2023/12/24 09:23:24;;;;;;;6.17;5.87;;;8.00;87.60;;;;;;6282059;28;20237;-78
2023/12/24 09:26:27;;;;;;;5.63;5.43;;;8.00;87.50;;;;;;6285296;28;20371;-79
2023/12/24 09:29:30;;;;;;;5.90;5.60;;;8.00;87.60;;;;;;6283692;28;20233;-80
2023/12/24 09:32:34;;;;;;;5.67;5.47;;;8.00;87.50;;;;;;6276247;28;21035;-80
2023/12/24 09:35:38;;;;;;;5.40;5.13;;;8.00;87.40;;;;;;6270057;28;20242;-79
2023/12/24 09:38:41;;;;;;;4.93;4.63;;;8.00;87.40;;;;;;6265422;28;20245;-81
2023/12/24 09:41:44;;;;;;;4.67;4.53;;;8.00;87.40;;;;;;6275954;28;20245;-81
2023/12/24 09:44:47;;;;;;;4.63;4.40;;;8.10;87.30;;;;;;6280778;28;20729;-81
2023/12/24 09:47:52;;;;;;;4.30;4.20;;;8.10;87.20;;;;;;6275516;28;20641;-78
2023/12/24 09:50:55;;;;;;;3.90;3.80;;;8.10;87.20;;;;;;6277442;28;20230;-82
2023/12/24 09:53:58;;;;;;;3.50;3.50;;;8.20;87.10;;;;;;6285460;28;20448;-79
2023/12/24 09:57:01;;;;;;;4.00;3.90;;;8.20;87.00;;;;;;6267869;28;20229;-79
2023/12/24 10:00:08;;;;;;;3.57;3.57;;;8.20;87.10;;;;;;6269975;28;20325;-78
2023/12/24 10:03:13;;;;;;;3.50;3.40;;;8.20;87.50;;;;;;6269120;28;20705;-78
2023/12/24 10:06:16;;;;;;;3.60;3.60;;;8.30;87.60;;;;;;6273724;28;20666;-80
2023/12/24 10:09:22;;;;;;;3.23;3.13;;;8.30;87.50;;;;;;6277092;28;20372;-80
2023/12/24 10:12:25;;;;;;;3.20;3.10;;;8.30;87.50;;;;;;6285369;28;20236;-78
2023/12/24 10:15:31;;;;;;;3.20;3.10;;;8.30;87.70;;;;;;6281760;28;20244;-79
2023/12/24 10:18:35;;;;;;;2.83;2.73;;;8.30;87.80;;;;;;6277813;28;20607;-79
2023/12/24 10:21:40;;;;;;;3.20;3.00;;;8.30;87.80;;;;;;6285939;28;20239;-79
2023/12/24 10:24:44;;;;;;;3.00;2.90;;;8.40;87.50;;;;;;6274322;28;20259;-79
2023/12/24 10:27:47;;;;;;;2.90;2.90;;;8.40;87.50;;;;;;6272292;28;20244;-80
2023/12/24 10:30:56;;;;;;;2.97;2.87;;;8.40;87.60;;;;;;6275703;28;20295;-79
2023/12/24 10:34:01;;;;;;;2.73;2.73;;;8.40;87.80;;;;;;6274610;28;20301;-78
2023/12/24 10:37:18;;;;;;;2.97;2.97;;;8.50;87.70;;;;;;6285018;28;20239;-77
2023/12/24 10:40:22;;;;;;;2.80;2.70;;;8.50;87.70;;;;;;6283039;28;20238;-79
2023/12/24 10:43:25;;;;;;;2.80;2.80;;;8.60;87.50;;;;;;6266276;28;20249;-78
2023/12/24 10:46:28;;;;;;;3.00;3.00;;;8.60;87.50;;;;;;6280132;28;20612;-79
2023/12/24 10:49:33;;;;;;;2.90;2.90;;;8.60;87.50;;;;;;6286491;28;20260;-79
2023/12/24 10:52:36;;;;;;;2.60;2.60;;;8.60;87.50;;;;;;6271803;28;20273;-76
2023/12/24 10:55:41;;;;;;;3.10;3.10;;;8.60;87.50;;;;;;6270297;28;20265;-80
2023/12/24 10:58:52;;;;;;;3.20;3.20;;;8.50;87.50;;;;;;6284828;28;20240;-79
2023/12/24 11:01:55;;;;;;;2.70;2.70;;;8.50;87.80;;;;;;6260345;28;20233;-78
2023/12/24 11:05:00;;;;;;;2.50;2.50;;;8.50;87.80;;;;;;6266874;28;20284;-79
2023/12/24 11:08:03;;;;;;;2.70;2.70;;;8.60;87.60;;;;;;6280970;28;20233;-79
2023/12/24 11:11:07;;;;;;;2.90;2.90;;;8.50;87.60;;;;;;6259263;28;20229;-80
2023/12/24 11:14:31;;;;;;;2.77;2.70;;;8.60;87.80;;;;;;6285823;28;20243;-80
2023/12/24 11:17:50;;;;;;;2.70;2.70;;;8.60;87.50;;;;;;6276560;28;20250;-82
2023/12/24 11:20:59;;;;;;;2.50;2.50;;;8.60;87.60;;;;;;6265281;28;20245;-79
2023/12/24 11:24:21;;;;;;;2.70;2.70;;;8.60;87.20;;;;;;6281552;28;20233;-79
2023/12/24 11:27:53;;;;;;;2.67;2.67;;;8.60;87.50;;;;;;6279289;28;20358;-80
2023/12/24 11:31:04;;;;;;;2.67;2.67;;;8.60;87.60;;;;;;6270228;28;20244;-79
2023/12/24 11:34:07;;;;;;;2.83;2.83;;;8.60;87.60;;;;;;6277688;28;20234;-81
2023/12/24 11:37:12;;;;;;;2.70;2.70;;;8.60;87.70;;;;;;6283499;28;20237;-79
2023/12/24 11:40:18;;;;;;;2.83;2.73;;;8.70;87.60;;;;;;6286604;28;20245;-76
2023/12/24 11:43:21;;;;;;;2.50;2.50;;;8.60;87.70;;;;;;6283013;28;20248;-79
2023/12/24 11:46:25;;;;;;;2.50;2.50;;;8.70;87.70;;;;;;6282026;28;20398;-79
2023/12/24 11:49:29;;;;;;;2.60;2.60;;;8.80;87.50;;;;;;6268369;28;20237;-78
2023/12/24 11:52:33;;;;;;;2.60;2.60;;;8.80;87.30;;;;;;6277909;28;20753;-78
2023/12/24 11:55:36;;;;;;;2.70;2.70;;;8.80;87.30;;;;;;6266095;28;20794;-78
2023/12/24 11:58:41;;;;;;;2.80;2.80;;;8.80;87.30;;;;;;6291591;28;20634;-79
2023/12/24 12:01:45;;;;;;;2.53;2.53;;;8.80;87.40;;;;;;6284531;28;20256;-78
2023/12/24 12:04:48;;;;;;;2.70;2.70;;;8.80;87.50;;;;;;6287705;28;20244;-79
2023/12/24 12:07:53;;;;;;;2.70;2.60;;;8.80;87.50;;;;;;6278930;28;20241;-79
2023/12/24 12:10:56;;;;;;;2.63;2.53;;;8.80;87.50;;;;;;6279833;28;20230;-77
2023/12/24 12:14:01;;;;;;;2.63;2.63;;;8.80;87.60;;;;;;6273196;28;20261;-77
2023/12/24 12:17:04;;;;;;;2.57;2.57;;;8.80;87.60;;;;;;6283324;28;20245;-79
2023/12/24 12:20:08;;;;;;;2.83;2.83;;;8.80;87.60;;;;;;6283073;28;20226;-78
2023/12/24 12:23:16;;;;;;;2.80;2.70;;;8.80;87.50;;;;;;6262552;28;20236;-79
2023/12/24 12:26:19;;;;;;;2.80;2.80;;;8.80;87.60;;;;;;6299060;28;20233;-79
2023/12/24 12:29:22;;;;;;;2.83;2.83;;;8.70;87.80;;;;;;6272686;28;20726;-78
2023/12/24 12:32:25;;;;;;;2.67;2.60;;;8.70;88.10;;;;;;6273764;28;20242;-79
2023/12/24 12:35:29;;;;;;;2.80;2.80;;;8.70;88.00;;;;;;6277387;28;20238;-79
2023/12/24 12:38:33;;;;;;;3.17;3.10;;;8.80;88.10;;;;;;6283137;28;20236;-79
2023/12/24 12:41:36;;;;;;;2.60;2.60;;;8.80;87.90;;;;;;6275230;28;20769;-79
2023/12/24 12:44:39;;;;;;;2.70;2.70;;;8.70;88.00;;;;;;6282829;28;20238;-79
2023/12/24 12:47:43;;;;;;;2.50;2.50;;;8.80;88.00;;;;;;6268655;28;20233;-80
2023/12/24 12:50:47;;;;;;;2.93;2.83;;;8.80;88.00;;;;;;6265316;28;20238;-79
2023/12/24 12:53:52;;;;;;;3.10;3.00;;;8.80;87.90;;;;;;6280290;28;20258;-78
2023/12/24 12:56:57;;;;;;;2.87;2.77;;;8.80;87.80;;;;;;6277251;28;20230;-76
2023/12/24 13:00:07;;;;;;;2.70;2.70;;;8.90;88.00;;;;;;6282186;28;20233;-78
2023/12/24 13:03:11;;;;;;;3.23;3.13;;;8.90;87.80;;;;;;6281321;28;20375;-79
2023/12/24 13:06:15;;;;;;;2.93;2.80;;;8.90;88.00;;;;;;6272287;28;20248;-79
2023/12/24 13:09:22;;;;;;;2.70;2.70;;;8.90;88.00;;;;;;6273155;28;20238;-78
2023/12/24 13:12:25;;;;;;;2.73;2.73;;;8.90;87.80;;;;;;6281496;28;20792;-79
2023/12/24 13:15:28;;;;;;;3.00;3.00;;;8.90;87.90;;;;;;6274131;28;20332;-78
2023/12/24 13:18:32;;;;;;;2.90;2.80;;;8.90;88.00;;;;;;6282515;28;20377;-79
2023/12/24 13:21:35;;;;;;;3.10;3.00;;;8.90;87.90;;;;;;6282050;28;20367;-79
2023/12/24 13:24:39;;;;;;;3.20;3.20;;;8.90;88.00;;;;;;6283064;28;20264;-76
2023/12/24 13:27:43;;;;;;;3.13;3.03;;;9.00;88.00;;;;;;6283687;28;20232;-80
2023/12/24 13:30:46;;;;;;;3.40;3.30;;;9.00;87.80;;;;;;6275962;28;20319;-80
2023/12/24 13:33:50;;;;;;;3.17;3.17;;;9.00;87.80;;;;;;6276802;28;20262;-79
2023/12/24 13:36:53;;;;;;;3.30;3.30;;;9.00;87.60;;;;;;6280227;28;20324;-81
2023/12/24 13:39:57;;;;;;;3.50;3.40;;;9.00;87.70;;;;;;6277379;28;20225;-80
2023/12/24 13:43:02;;;;;;;3.80;3.50;;;9.20;87.50;;;;;;6271962;28;20237;-78
2023/12/24 13:46:38;;;;;;;3.57;3.57;;;9.10;87.50;;;;;;6276564;28;20284;-76
2023/12/24 13:49:41;;;;;;;3.40;3.30;;;9.10;87.50;;;;;;6258165;28;20609;-77
2023/12/24 13:52:44;;;;;;;3.23;3.23;;;9.20;87.30;;;;;;6266014;28;21700;-81
2023/12/24 13:55:49;;;;;;;3.40;3.30;;;9.20;87.40;;;;;;6273797;28;20255;-83
2023/12/24 13:58:52;;;;;;;3.43;3.37;;;9.20;87.40;;;;;;6283388;28;20718;-78
2023/12/24 14:01:55;;;;;;;4.00;3.90;;;9.20;87.30;;;;;;6277300;28;20503;-79
2023/12/24 14:04:58;;;;;;;3.70;3.60;;;9.30;87.10;;;;;;6265772;28;20785;-81
2023/12/24 14:08:01;;;;;;;3.43;3.30;;;9.20;87.10;;;;;;6284016;28;20229;-81
2023/12/24 14:11:07;;;;;;;3.43;3.33;;;9.20;87.10;;;;;;6285728;28;20324;-81
2023/12/24 14:14:10;;;;;;;3.30;3.30;;;9.20;87.30;;;;;;6266183;28;20590;-79
2023/12/24 14:17:14;;;;;;;3.30;3.30;;;9.20;87.40;;;;;;6286186;28;20311;-78
2023/12/24 14:20:17;;;;;;;3.37;3.20;;;9.20;87.50;;;;;;6279600;28;20229;-79
2023/12/24 14:23:20;;;;;;;3.40;3.30;;;9.20;87.50;;;;;;6299586;28;20256;-80
2023/12/24 14:26:25;;;;;;;3.40;3.30;;;9.20;87.60;;;;;;6282446;28;20535;-82
2023/12/24 14:29:29;;;;;;;3.10;3.10;;;9.20;87.60;;;;;;6282317;28;20245;-82
2023/12/24 14:32:33;;;;;;;3.77;3.50;;;9.20;87.70;;;;;;6290048;28;20248;-81
2023/12/24 14:35:36;;;;;;;3.63;3.53;;;9.20;87.80;;;;;;6278195;28;20696;-79
2023/12/24 14:38:39;;;;;;;3.20;3.20;;;9.30;87.80;;;;;;6272026;28;20937;-79
2023/12/24 14:41:44;;;;;;;3.30;3.10;;;9.20;87.80;;;;;;6277210;28;20265;-80
2023/12/24 14:45:00;;;;;;;3.37;3.27;;;9.20;87.80;;;;;;6279740;28;20238;-81
2023/12/24 14:48:17;;;;;;;3.90;3.57;;;9.30;87.90;;;;;;6273954;28;20308;-82
2023/12/24 14:51:21;;;;;;;3.53;3.30;;;9.20;88.00;;;;;;6285443;28;20229;-78
2023/12/24 14:54:25;;;;;;;3.50;3.40;;;9.20;88.10;;;;;;6271414;28;20238;-81
2023/12/24 14:57:30;;;;;;;4.40;3.67;;;9.20;87.90;;;;;;6271747;28;20748;-80
2023/12/24 15:00:36;;;;;;;3.57;3.47;;;9.20;87.80;;;;;;6277416;28;20234;-80
2023/12/24 15:03:40;;;;;;;3.33;3.33;;;9.30;87.80;;;;;;6278261;28;20316;-80
2023/12/24 15:06:45;;;;;;;3.97;3.87;;;9.30;87.70;;;;;;6272013;28;20829;-81
2023/12/24 15:09:48;;;;;;;3.77;3.57;;;9.40;87.50;;;;;;6269524;28;20233;-82
2023/12/24 15:12:53;;;;;;;3.37;3.27;;;9.20;87.50;;;;;;6280156;28;20241;-81
2023/12/24 15:15:56;;;;;;;3.80;3.60;;;9.20;87.40;;;;;;6287086;28;20371;-80
2023/12/24 15:18:59;;;;;;;3.40;3.30;;;9.20;87.40;;;;;;6292295;28;20269;-82
2023/12/24 15:22:03;;;;;;;4.07;3.90;;;9.20;87.40;;;;;;6283025;28;20267;-79
2023/12/24 15:25:07;;;;;;;3.50;3.40;;;9.20;87.30;;;;;;6286040;28;20237;-79
2023/12/24 15:28:11;;;;;;;3.50;3.40;;;9.20;87.30;;;;;;6290136;28;20261;-79
2023/12/24 15:31:14;;;;;;;4.17;3.20;;;9.20;87.60;;;;;;6283932;28;20363;-79
2023/12/24 15:34:17;;;;;;;3.50;3.40;;;9.20;87.50;;;;;;6278528;28;20229;-77
2023/12/24 15:37:21;;;;;;;3.50;3.30;;;9.20;87.70;;;;;;6277519;28;20234;-76
2023/12/24 15:40:24;;;;;;;3.80;3.67;;;9.20;87.80;;;;;;6285793;28;20237;-79
2023/12/24 15:43:29;;;;;;;3.30;3.10;;;9.20;87.90;;;;;;6284862;28;20248;-79
2023/12/24 15:46:32;;;;;;;3.60;3.50;;;9.20;88.20;;;;;;6288641;28;20305;-82
2023/12/24 15:49:35;;;;;;;3.23;3.13;;;9.20;88.00;;;;;;6283582;28;20241;-79
2023/12/24 15:52:40;;;;;;;3.10;2.90;;;9.20;88.10;;;;;;6281624;28;20264;-78
2023/12/24 15:55:43;;;;;;;3.20;3.07;;;9.30;88.10;;;;;;6267337;28;20528;-79
2023/12/24 15:58:48;;;;;;;3.10;3.00;;;9.20;88.00;;;;;;6270297;28;20264;-80
2023/12/24 16:01:51;;;;;;;2.90;2.90;;;9.30;88.00;;;;;;6274904;28;20746;-80
2023/12/24 16:04:54;;;;;;;3.20;3.00;;;9.40;88.00;;;;;;6273834;28;20230;-79
2023/12/24 16:07:57;;;;;;;3.20;3.00;;;9.40;87.90;;;;;;6288598;28;20320;-80
2023/12/24 16:11:00;;;;;;;2.60;2.60;;;9.40;87.70;;;;;;6271747;28;20234;-80